createdAt,value
2018-06-05T21:46:44.176Z,100555.53
2018-06-05T21:49:12.606Z,100557.66
2018-06-05T21:51:41.078Z,100566.84
2018-06-05T21:54:09.578Z,100566.32
2018-06-05T21:56:37.976Z,100561.63
2018-06-05T21:59:06.306Z,100564.20
2018-06-05T22:01:34.747Z,100569.83
2018-06-05T22:04:03.141Z,100570.11
2018-06-05T22:06:31.577Z,100564.47
2018-06-05T22:08:59.964Z,100562.34
2018-06-05T22:11:28.393Z,100558.87
2018-06-05T22:13:56.849Z,100560.17
2018-06-05T22:16:26.044Z,100560.85
2018-06-05T22:18:54.390Z,100561.69
2018-06-05T22:21:22.888Z,100558.84
2018-06-05T22:23:51.341Z,100554.34
2018-06-05T22:26:19.824Z,100555.45
2018-06-05T22:28:48.147Z,100559.89
2018-06-05T22:31:16.531Z,100555.89
2018-06-05T22:33:44.934Z,100565.15
2018-06-05T22:36:13.279Z,100559.06
2018-06-05T22:38:42.451Z,100557.02
2018-06-05T22:41:10.808Z,100553.60
2018-06-05T22:43:39.244Z,100550.30
2018-06-05T22:46:07.621Z,100556.23
2018-06-05T22:48:36.032Z,100554.28
2018-06-05T22:51:04.399Z,100552.01
2018-06-05T22:53:33.497Z,100558.20
2018-06-05T22:56:01.800Z,100550.91
2018-06-05T22:58:30.156Z,100551.09
2018-06-05T23:00:58.613Z,100544.80
2018-06-05T23:03:26.948Z,100547.50
2018-06-05T23:05:55.312Z,100542.25
2018-06-05T23:08:24.416Z,100545.78
2018-06-05T23:10:52.759Z,100547.34
2018-06-05T23:13:21.147Z,100548.19
2018-06-05T23:15:50.434Z,100544.30
2018-06-05T23:18:19.538Z,100547.43
2018-06-05T23:20:47.945Z,100539.84
2018-06-05T23:23:16.349Z,100538.72
2018-06-05T23:25:44.719Z,100543.75
2018-06-05T23:28:13.118Z,100547.41
2018-06-05T23:30:41.478Z,100542.86
2018-06-05T23:33:09.851Z,100540.27
2018-06-05T23:35:38.959Z,100547.38
2018-06-05T23:38:08.131Z,100542.16
2018-06-05T23:40:36.611Z,100544.16
2018-06-05T23:43:05.048Z,100549.64
2018-06-05T23:45:33.435Z,100537.27
2018-06-05T23:48:01.860Z,100540.70
2018-06-05T23:50:30.227Z,100549.06
2018-06-05T23:52:58.666Z,100554.15
2018-06-05T23:55:27.027Z,100557.11
2018-06-05T23:57:55.463Z,100556.23
